Time;durP1;ratioP1;P1;durP2;ratioP2;P2;SDS_P1;SDS_P2;PMS_P1;PMS_P2;Temp;Humidity;BMP_temperature;BMP_pressure;BME280_temperature;BME280_humidity;BME280_pressure;Samples;Min_cycle;Max_cycle;Signal;HPM_P1;HPM_P2
2023/11/03 00:02:15;;;;;;;3.80;1.73;;;17.40;69.90;;;;;;5015645;28;20029;-56
2023/11/03 00:04:40;;;;;;;3.55;1.48;;;17.40;70.00;;;;;;5014901;28;20034;-56
2023/11/03 00:07:06;;;;;;;5.00;2.30;;;17.40;69.90;;;;;;5019262;28;20475;-56
2023/11/03 00:09:33;;;;;;;5.80;2.20;;;17.40;70.00;;;;;;5021006;28;20030;-51
2023/11/03 00:12:00;;;;;;;4.55;2.15;;;17.40;70.00;;;;;;5020152;28;20033;-55
2023/11/03 00:14:27;;;;;;;4.07;1.83;;;17.40;70.10;;;;;;5020473;28;20068;-56
2023/11/03 00:16:53;;;;;;;5.03;2.22;;;17.40;70.00;;;;;;5017833;28;20041;-55
2023/11/03 00:19:19;;;;;;;4.97;1.77;;;17.40;70.00;;;;;;5018629;28;20030;-55
2023/11/03 00:21:45;;;;;;;6.22;2.03;;;17.40;70.00;;;;;;5020258;28;20487;-56
2023/11/03 00:24:11;;;;;;;4.43;1.75;;;17.40;70.00;;;;;;5020132;28;20025;-56
2023/11/03 00:26:37;;;;;;;6.60;1.92;;;17.40;70.00;;;;;;5016989;28;20105;-56
2023/11/03 00:29:05;;;;;;;4.53;1.73;;;17.40;70.00;;;;;;5015172;28;20022;-56
2023/11/03 00:31:30;;;;;;;2.83;1.52;;;17.40;70.00;;;;;;5013548;28;20549;-55
2023/11/03 00:33:56;;;;;;;3.85;2.05;;;17.40;70.00;;;;;;5017336;28;20033;-56
2023/11/03 00:36:22;;;;;;;3.50;1.50;;;17.40;70.00;;;;;;5021669;28;20117;-55
2023/11/03 00:38:47;;;;;;;3.22;1.50;;;17.40;70.00;;;;;;5022100;28;20117;-56
2023/11/03 00:41:14;;;;;;;2.97;1.60;;;17.40;70.00;;;;;;5021258;28;20099;-54
2023/11/03 00:43:45;;;;;;;4.22;1.95;;;17.40;70.00;;;;;;5018184;28;20091;-55
2023/11/03 00:46:11;;;;;;;4.55;1.85;;;17.40;70.00;;;;;;5017889;28;20045;-54
2023/11/03 00:48:37;;;;;;;3.67;1.67;;;17.40;70.00;;;;;;5016447;28;20037;-56
2023/11/03 00:51:03;;;;;;;3.70;1.65;;;17.40;70.00;;;;;;5017003;28;20038;-56
2023/11/03 00:53:29;;;;;;;5.15;1.63;;;17.40;70.00;;;;;;5014498;28;20030;-56
2023/11/03 00:55:55;;;;;;;2.15;1.30;;;17.40;70.00;;;;;;5013952;28;20041;-55
2023/11/03 00:58:21;;;;;;;2.25;1.20;;;17.40;70.00;;;;;;5020573;28;20041;-56
2023/11/03 01:00:47;;;;;;;3.95;1.30;;;17.40;70.00;;;;;;5012087;28;20128;-55
2023/11/03 01:03:14;;;;;;;4.55;1.30;;;17.40;70.00;;;;;;5018000;28;20088;-56
2023/11/03 01:05:39;;;;;;;4.18;1.60;;;17.40;70.00;;;;;;5020675;28;20655;-56
2023/11/03 01:08:05;;;;;;;2.40;1.23;;;17.40;70.00;;;;;;5017918;28;20515;-56
2023/11/03 01:10:31;;;;;;;3.15;1.52;;;17.40;70.00;;;;;;5023031;28;20061;-55
2023/11/03 01:12:56;;;;;;;3.20;1.60;;;17.40;70.00;;;;;;5018510;28;20049;-55
2023/11/03 01:15:23;;;;;;;2.17;1.25;;;17.30;70.00;;;;;;5017982;28;20041;-55
2023/11/03 01:17:50;;;;;;;3.40;1.85;;;17.40;70.00;;;;;;5020171;28;20037;-56
2023/11/03 01:20:24;;;;;;;2.80;1.23;;;17.40;70.00;;;;;;5014440;28;20438;-56
2023/11/03 01:22:50;;;;;;;1.95;1.35;;;17.40;70.00;;;;;;5015212;28;20129;-57
2023/11/03 01:25:16;;;;;;;3.28;1.63;;;17.30;69.90;;;;;;5013160;28;20528;-57
2023/11/03 01:27:44;;;;;;;4.70;1.63;;;17.30;69.90;;;;;;5015512;28;20156;-56
2023/11/03 01:30:12;;;;;;;3.88;1.13;;;17.40;70.00;;;;;;5018199;28;20037;-56
2023/11/03 01:32:38;;;;;;;3.38;1.10;;;17.40;70.00;;;;;;5025929;22;20188;-53
2023/11/03 01:35:06;;;;;;;2.58;1.30;;;17.40;70.00;;;;;;5012664;28;20056;-55
2023/11/03 01:37:32;;;;;;;2.40;1.20;;;17.40;70.00;;;;;;5017594;28;20030;-55
2023/11/03 01:39:58;;;;;;;4.15;1.65;;;17.40;70.00;;;;;;5017996;28;20040;-54
2023/11/03 01:42:25;;;;;;;2.45;1.60;;;17.30;69.90;;;;;;5015831;28;20141;-53
2023/11/03 01:44:51;;;;;;;2.10;1.10;;;17.40;70.60;;;;;;5015795;28;20116;-53
2023/11/03 01:47:17;;;;;;;1.77;0.90;;;17.40;70.10;;;;;;5021598;28;20113;-56
2023/11/03 01:49:44;;;;;;;1.83;1.00;;;17.40;70.00;;;;;;5013966;28;20045;-53
2023/11/03 01:52:10;;;;;;;2.55;1.30;;;17.30;69.90;;;;;;5013527;28;20041;-53
2023/11/03 01:54:37;;;;;;;2.83;1.20;;;17.30;69.90;;;;;;5010192;28;20034;-53
2023/11/03 01:57:02;;;;;;;1.75;0.88;;;17.40;70.00;;;;;;5009042;28;20034;-53
2023/11/03 01:59:28;;;;;;;2.10;1.00;;;17.40;69.90;;;;;;5011154;28;20037;-53
2023/11/03 02:01:56;;;;;;;1.80;0.80;;;17.30;69.80;;;;;;5009502;28;20097;-54
2023/11/03 02:04:21;;;;;;;2.45;0.80;;;17.30;69.90;;;;;;5014667;28;20494;-54
2023/11/03 02:06:47;;;;;;;3.05;1.02;;;17.30;69.90;;;;;;5017111;28;20064;-54
2023/11/03 02:09:13;;;;;;;4.07;1.00;;;17.30;69.90;;;;;;5016007;28;20029;-54
2023/11/03 02:11:43;;;;;;;1.70;1.00;;;17.30;69.90;;;;;;5014094;28;20040;-54
2023/11/03 02:14:09;;;;;;;2.63;1.20;;;17.30;69.90;;;;;;5015137;28;20034;-56
2023/11/03 02:16:35;;;;;;;2.25;1.00;;;17.30;69.90;;;;;;5015803;28;20080;-53
2023/11/03 02:19:03;;;;;;;1.42;0.80;;;17.40;69.90;;;;;;5014512;28;20294;-55
2023/11/03 02:21:34;;;;;;;1.55;0.93;;;17.30;69.90;;;;;;5012288;28;20489;-56
2023/11/03 02:23:59;;;;;;;1.77;0.85;;;17.30;69.90;;;;;;5011507;28;20037;-55
2023/11/03 02:26:25;;;;;;;2.97;0.90;;;17.30;69.90;;;;;;5008002;28;20022;-54
2023/11/03 02:28:50;;;;;;;2.10;1.10;;;17.30;69.90;;;;;;5014309;28;21159;-54
2023/11/03 02:31:16;;;;;;;1.45;0.80;;;17.30;69.90;;;;;;5015100;28;20100;-54
2023/11/03 02:33:42;;;;;;;1.30;0.80;;;17.30;69.90;;;;;;5020467;28;20042;-56
2023/11/03 02:36:08;;;;;;;2.45;1.00;;;17.30;69.90;;;;;;5021271;28;20061;-54
2023/11/03 02:38:34;;;;;;;1.67;0.85;;;17.30;69.80;;;;;;5019002;28;20042;-55
2023/11/03 02:40:59;;;;;;;1.40;0.80;;;17.30;69.80;;;;;;5018597;28;20121;-51
2023/11/03 02:43:25;;;;;;;1.55;0.73;;;17.30;69.80;;;;;;5017920;28;20043;-57
2023/11/03 02:45:51;;;;;;;1.92;1.00;;;17.30;69.80;;;;;;5020765;28;20487;-56
2023/11/03 02:48:17;;;;;;;1.75;0.65;;;17.30;69.80;;;;;;5017683;28;20030;-51
2023/11/03 02:50:42;;;;;;;0.93;0.68;;;17.30;69.80;;;;;;5016090;28;20601;-51
2023/11/03 02:53:08;;;;;;;2.10;1.02;;;17.30;69.90;;;;;;5016458;28;20044;-53
2023/11/03 02:55:34;;;;;;;1.75;0.60;;;17.30;69.90;;;;;;5015741;28;20030;-57
2023/11/03 02:58:01;;;;;;;2.80;0.60;;;17.30;69.80;;;;;;5015037;28;20773;-57
2023/11/03 03:00:28;;;;;;;2.28;0.70;;;17.30;69.90;;;;;;5017609;28;20033;-54
2023/11/03 03:02:54;;;;;;;3.60;1.05;;;17.30;69.90;;;;;;5020737;28;20028;-54
2023/11/03 03:05:20;;;;;;;2.30;0.90;;;17.30;69.80;;;;;;5020232;28;20033;-61
2023/11/03 03:07:46;;;;;;;2.22;0.80;;;17.30;69.80;;;;;;5018503;28;20068;-56
2023/11/03 03:10:12;;;;;;;0.80;0.60;;;17.30;69.80;;;;;;5020483;28;20083;-56
2023/11/03 03:12:38;;;;;;;1.73;0.77;;;17.30;69.90;;;;;;5016352;28;20482;-57
2023/11/03 03:15:04;;;;;;;1.63;0.75;;;17.30;69.90;;;;;;5019552;28;20044;-53
2023/11/03 03:17:33;;;;;;;0.85;0.68;;;17.30;69.80;;;;;;5018872;28;20029;-54
2023/11/03 03:19:59;;;;;;;1.83;0.80;;;17.30;69.80;;;;;;5014293;28;20033;-54
2023/11/03 03:22:24;;;;;;;0.70;0.43;;;17.30;69.80;;;;;;5014136;28;20316;-53
2023/11/03 03:24:50;;;;;;;1.63;0.55;;;17.30;69.80;;;;;;5014235;28;20040;-57
2023/11/03 03:27:15;;;;;;;0.90;0.50;;;17.30;69.90;;;;;;5015143;28;20030;-56
2023/11/03 03:29:41;;;;;;;1.45;0.95;;;17.30;69.80;;;;;;5020126;28;20378;-53
2023/11/03 03:32:06;;;;;;;1.35;0.52;;;17.30;70.50;;;;;;5021318;28;20033;-55
2023/11/03 03:34:32;;;;;;;1.38;1.20;;;17.30;69.80;;;;;;5018806;28;20755;-54
2023/11/03 03:36:58;;;;;;;0.63;0.50;;;17.30;69.80;;;;;;5015903;28;20124;-53
2023/11/03 03:39:23;;;;;;;1.63;0.60;;;17.30;69.80;;;;;;5016274;28;20022;-53
2023/11/03 03:41:51;;;;;;;1.13;0.50;;;17.30;69.90;;;;;;5023206;28;20478;-52
2023/11/03 03:44:16;;;;;;;1.73;0.68;;;17.30;69.80;;;;;;5017752;28;20058;-57
2023/11/03 03:46:42;;;;;;;1.73;0.90;;;17.30;69.80;;;;;;5015150;28;20529;-55
2023/11/03 03:49:07;;;;;;;1.88;0.88;;;17.30;69.80;;;;;;5016969;28;20494;-53
2023/11/03 03:51:33;;;;;;;3.08;0.65;;;17.30;69.80;;;;;;5014456;28;20061;-54
2023/11/03 03:53:58;;;;;;;1.10;0.82;;;17.30;69.80;;;;;;5017294;28;20037;-55
2023/11/03 03:56:25;;;;;;;0.80;0.50;;;17.30;69.80;;;;;;5016659;28;20087;-55
2023/11/03 03:58:52;;;;;;;1.40;0.50;;;17.30;69.80;;;;;;5020777;28;20032;-53
2023/11/03 04:01:19;;;;;;;1.67;0.68;;;17.30;69.80;;;;;;5020412;28;20030;-56
2023/11/03 04:03:45;;;;;;;0.85;0.60;;;17.30;69.80;;;;;;5022162;28;20274;-55
2023/11/03 04:06:10;;;;;;;1.27;0.50;;;17.30;69.80;;;;;;5018354;28;20033;-52
2023/11/03 04:08:37;;;;;;;0.90;0.50;;;17.30;69.80;;;;;;5016489;28;20044;-53
2023/11/03 04:11:03;;;;;;;1.63;0.60;;;17.30;69.80;;;;;;5017339;28;20037;-56
2023/11/03 04:13:29;;;;;;;0.68;0.47;;;17.30;69.80;;;;;;5018607;28;20145;-57
2023/11/03 04:15:54;;;;;;;0.70;0.57;;;17.30;69.80;;;;;;5015612;28;20171;-52
2023/11/03 04:18:21;;;;;;;1.20;0.70;;;17.30;69.80;;;;;;5013813;28;20633;-53
2023/11/03 04:20:47;;;;;;;0.57;0.40;;;17.30;69.80;;;;;;5016569;28;20118;-51
2023/11/03 04:23:13;;;;;;;1.80;0.47;;;17.30;70.40;;;;;;5012975;28;20060;-53
2023/11/03 04:25:39;;;;;;;0.85;0.63;;;17.30;69.80;;;;;;5018551;28;20508;-56
2023/11/03 04:28:08;;;;;;;1.40;0.50;;;17.30;69.80;;;;;;5020963;28;20024;-52
2023/11/03 04:30:35;;;;;;;1.00;0.60;;;17.30;69.80;;;;;;5017980;28;20172;-53
2023/11/03 04:33:01;;;;;;;2.28;0.60;;;17.30;69.80;;;;;;5019985;28;20484;-54
2023/11/03 04:35:26;;;;;;;0.47;0.40;;;17.20;69.80;;;;;;5020235;28;20041;-53
2023/11/03 04:37:52;;;;;;;1.08;0.60;;;17.30;69.80;;;;;;5020386;28;20029;-55
2023/11/03 04:40:19;;;;;;;1.38;0.60;;;17.20;69.70;;;;;;5020640;28;20053;-56
2023/11/03 04:42:45;;;;;;;1.02;0.88;;;17.30;69.80;;;;;;5013480;28;20036;-54
2023/11/03 04:45:10;;;;;;;1.58;0.50;;;17.20;69.80;;;;;;5016265;28;20045;-53
2023/11/03 04:47:36;;;;;;;1.95;0.82;;;17.20;69.70;;;;;;5011975;28;20040;-55
2023/11/03 04:50:02;;;;;;;0.98;0.60;;;17.30;69.80;;;;;;5019154;28;20498;-53
2023/11/03 04:52:27;;;;;;;1.00;0.50;;;17.30;69.80;;;;;;5013290;28;20812;-51
2023/11/03 04:54:53;;;;;;;1.20;0.85;;;17.30;69.80;;;;;;5016836;28;20547;-53
2023/11/03 04:57:20;;;;;;;1.65;0.50;;;17.30;69.80;;;;;;5021183;28;20033;-56
2023/11/03 04:59:45;;;;;;;0.60;0.45;;;17.20;69.70;;;;;;5019322;28;20119;-56
2023/11/03 05:02:11;;;;;;;2.00;0.45;;;17.20;69.70;;;;;;5015822;28;20544;-52
2023/11/03 05:04:36;;;;;;;1.70;0.75;;;17.20;69.70;;;;;;5014980;28;20078;-55
2023/11/03 05:07:02;;;;;;;1.17;0.60;;;17.30;69.80;;;;;;5016066;28;20183;-53
2023/11/03 05:09:28;;;;;;;1.38;0.57;;;17.30;69.80;;;;;;5018531;28;20112;-53
2023/11/03 05:11:53;;;;;;;0.80;0.60;;;17.30;69.80;;;;;;5014580;28;20017;-52
2023/11/03 05:14:19;;;;;;;0.77;0.40;;;17.20;69.80;;;;;;5014333;28;20025;-53
2023/11/03 05:16:46;;;;;;;1.73;0.70;;;17.20;69.70;;;;;;5017205;28;20494;-54
2023/11/03 05:19:11;;;;;;;1.63;0.80;;;17.20;69.70;;;;;;5014225;28;20033;-55
2023/11/03 05:21:37;;;;;;;0.85;0.45;;;17.20;69.70;;;;;;5015499;28;20040;-54
2023/11/03 05:24:03;;;;;;;0.77;0.40;;;17.30;69.70;;;;;;5017459;28;20034;-53
2023/11/03 05:26:28;;;;;;;1.42;0.60;;;17.20;69.70;;;;;;5016669;28;20030;-55
2023/11/03 05:28:56;;;;;;;1.35;0.60;;;17.20;69.70;;;;;;5019245;28;20029;-51
2023/11/03 05:31:22;;;;;;;1.73;0.47;;;17.20;69.70;;;;;;5015217;28;20478;-52
2023/11/03 05:33:47;;;;;;;0.88;0.47;;;17.20;69.70;;;;;;5017758;28;20045;-53
2023/11/03 05:36:13;;;;;;;0.73;0.40;;;17.20;69.80;;;;;;5016096;28;20045;-55
2023/11/03 05:38:38;;;;;;;0.57;0.40;;;17.20;69.80;;;;;;5017475;28;20048;-52
2023/11/03 05:41:04;;;;;;;0.80;0.40;;;17.20;69.80;;;;;;5007787;28;20073;-51
2023/11/03 05:43:30;;;;;;;0.88;0.50;;;17.20;69.70;;;;;;5014094;28;20391;-53
2023/11/03 05:45:56;;;;;;;0.82;0.50;;;17.20;69.80;;;;;;5016059;28;20033;-53
2023/11/03 05:48:21;;;;;;;1.13;0.65;;;17.20;69.80;;;;;;5015286;28;20413;-56
2023/11/03 05:50:47;;;;;;;0.75;0.35;;;17.20;69.80;;;;;;5015284;28;20029;-51
2023/11/03 05:53:12;;;;;;;1.77;0.63;;;17.20;69.80;;;;;;5017576;28;20044;-53
2023/11/03 05:55:38;;;;;;;1.38;0.70;;;17.20;69.80;;;;;;5020234;28;20478;-54
2023/11/03 05:58:04;;;;;;;0.85;0.43;;;17.20;69.80;;;;;;5022022;28;20029;-53
2023/11/03 06:00:30;;;;;;;1.08;0.73;;;17.20;69.80;;;;;;5017301;28;20041;-54
2023/11/03 06:02:56;;;;;;;2.40;0.50;;;17.20;69.80;;;;;;5017437;28;20033;-54
2023/11/03 06:05:21;;;;;;;2.72;0.70;;;17.20;69.80;;;;;;5014732;28;20040;-58
2023/11/03 06:07:48;;;;;;;1.20;0.57;;;17.20;69.80;;;;;;5016655;28;20034;-52
2023/11/03 06:10:14;;;;;;;1.25;0.60;;;17.20;69.80;;;;;;5015353;28;20037;-52
2023/11/03 06:12:40;;;;;;;2.88;0.57;;;17.20;69.80;;;;;;5011379;28;20041;-52
2023/11/03 06:15:06;;;;;;;2.95;1.17;;;17.20;69.80;;;;;;5015423;28;20029;-56
2023/11/03 06:17:32;;;;;;;4.05;1.10;;;17.20;69.80;;;;;;5017025;28;20036;-51
2023/11/03 06:19:57;;;;;;;2.78;0.93;;;17.20;69.80;;;;;;5010011;28;20805;-54
2023/11/03 06:22:23;;;;;;;2.97;1.10;;;17.20;69.80;;;;;;5018047;28;20049;-52
2023/11/03 06:24:48;;;;;;;3.22;1.20;;;17.20;69.80;;;;;;5017567;28;20060;-53
2023/11/03 06:27:14;;;;;;;2.20;1.00;;;17.20;69.80;;;;;;5000179;28;20124;-55
2023/11/03 06:29:43;;;;;;;2.78;1.20;;;17.20;69.80;;;;;;5016261;28;20341;-54
2023/11/03 06:32:09;;;;;;;3.83;1.17;;;17.20;69.90;;;;;;5003137;28;20040;-54
2023/11/03 06:34:35;;;;;;;3.42;1.27;;;17.20;69.90;;;;;;5012785;28;20499;-56
2023/11/03 06:37:00;;;;;;;4.38;1.63;;;17.20;69.90;;;;;;5017908;28;20041;-55
2023/11/03 06:39:26;;;;;;;4.80;1.80;;;17.20;69.90;;;;;;5018926;28;20483;-55
2023/11/03 06:41:52;;;;;;;3.80;1.23;;;17.20;69.90;;;;;;4997221;28;20032;-61
2023/11/03 06:44:17;;;;;;;3.63;1.10;;;17.20;70.50;;;;;;5016608;28;20609;-54
2023/11/03 06:46:43;;;;;;;2.13;1.27;;;17.20;69.90;;;;;;5012348;28;20033;-54
2023/11/03 06:49:09;;;;;;;3.22;1.60;;;17.20;69.80;;;;;;5013873;28;20025;-52
2023/11/03 06:51:34;;;;;;;4.97;1.38;;;17.20;69.90;;;;;;5013160;28;20025;-55
2023/11/03 06:54:00;;;;;;;3.13;1.20;;;17.20;69.80;;;;;;5012972;28;20052;-52
2023/11/03 06:56:26;;;;;;;2.80;1.13;;;17.20;69.80;;;;;;5011050;28;20752;-54
2023/11/03 06:58:51;;;;;;;1.58;1.02;;;17.20;69.80;;;;;;5013808;28;20516;-54
2023/11/03 07:01:16;;;;;;;2.10;1.15;;;17.20;69.80;;;;;;5013244;28;20586;-52
2023/11/03 07:03:42;;;;;;;2.80;1.45;;;17.20;69.80;;;;;;5014446;28;20065;-53
2023/11/03 07:06:08;;;;;;;5.60;1.50;;;17.20;69.80;;;;;;5014333;28;20033;-54
2023/11/03 07:08:33;;;;;;;6.97;2.22;;;17.20;69.80;;;;;;5015195;28;20142;-51
2023/11/03 07:10:59;;;;;;;3.75;1.35;;;17.20;69.80;;;;;;5015079;28;20030;-53
2023/11/03 07:13:28;;;;;;;3.45;1.75;;;17.20;69.80;;;;;;5014671;28;20029;-53
2023/11/03 07:15:55;;;;;;;4.35;1.48;;;17.10;70.10;;;;;;5017031;28;20049;-52
2023/11/03 07:18:21;;;;;;;4.38;1.90;;;17.10;69.80;;;;;;5020415;28;20234;-52
2023/11/03 07:20:47;;;;;;;4.63;1.50;;;17.20;70.50;;;;;;5016882;28;20057;-53
2023/11/03 07:23:13;;;;;;;5.45;1.85;;;17.20;69.80;;;;;;5019810;28;20037;-52
2023/11/03 07:25:39;;;;;;;4.03;1.98;;;17.20;69.80;;;;;;5019235;28;20065;-54
2023/11/03 07:28:05;;;;;;;3.35;1.60;;;17.20;69.80;;;;;;5021162;28;20459;-53
2023/11/03 07:30:30;;;;;;;2.63;1.58;;;17.20;69.80;;;;;;5016989;28;20517;-52
2023/11/03 07:32:57;;;;;;;6.30;1.83;;;17.20;69.80;;;;;;5019858;28;20041;-54
2023/11/03 07:35:22;;;;;;;4.15;1.92;;;17.10;69.70;;;;;;5017631;28;20041;-53
2023/11/03 07:37:48;;;;;;;3.03;1.42;;;17.10;69.80;;;;;;5021052;28;20111;-53
2023/11/03 07:40:14;;;;;;;4.70;1.42;;;17.10;69.80;;;;;;5013738;28;20031;-53
2023/11/03 07:42:40;;;;;;;3.88;1.73;;;17.20;69.80;;;;;;5016709;28;20557;-54
2023/11/03 07:45:07;;;;;;;5.18;2.08;;;17.10;69.70;;;;;;5016420;28;20395;-55
2023/11/03 07:47:33;;;;;;;5.82;1.90;;;17.20;69.80;;;;;;5018468;28;20053;-52
2023/11/03 07:49:58;;;;;;;4.82;1.52;;;17.10;69.70;;;;;;5016842;28;20717;-52
2023/11/03 07:52:24;;;;;;;3.72;1.98;;;17.10;69.70;;;;;;5011316;28;20064;-55
2023/11/03 07:54:50;;;;;;;4.32;1.92;;;17.10;69.80;;;;;;5017541;28;20112;-54
2023/11/03 07:57:16;;;;;;;3.10;1.10;;;17.10;69.70;;;;;;5019699;28;20025;-53
2023/11/03 07:59:42;;;;;;;5.95;1.75;;;17.20;69.80;;;;;;5018091;28;20104;-53
2023/11/03 08:02:07;;;;;;;4.05;1.60;;;17.20;69.80;;;;;;5018983;28;20025;-54
2023/11/03 08:04:33;;;;;;;3.42;1.75;;;17.20;69.80;;;;;;5023632;28;20501;-54
2023/11/03 08:06:59;;;;;;;3.72;1.65;;;17.10;69.70;;;;;;5017140;28;20521;-54
2023/11/03 08:09:27;;;;;;;3.28;1.45;;;17.10;69.80;;;;;;5014545;28;20403;-53
2023/11/03 08:11:56;;;;;;;2.65;1.23;;;17.10;69.70;;;;;;5012271;28;20121;-52
2023/11/03 08:14:21;;;;;;;6.10;1.80;;;17.10;69.80;;;;;;5015614;28;20033;-53
2023/11/03 08:16:48;;;;;;;4.47;1.92;;;17.20;69.80;;;;;;5015571;28;20599;-54
2023/11/03 08:19:14;;;;;;;2.97;1.55;;;17.10;69.70;;;;;;5013888;28;20060;-54
2023/11/03 08:21:42;;;;;;;6.22;1.95;;;17.10;69.80;;;;;;5014038;28;20061;-51
2023/11/03 08:24:12;;;;;;;6.28;1.40;;;17.10;69.70;;;;;;5014809;28;20025;-53
2023/11/03 08:26:39;;;;;;;5.63;1.80;;;17.10;69.70;;;;;;5019226;28;20022;-54
2023/11/03 08:29:05;;;;;;;3.80;1.65;;;17.10;69.70;;;;;;5019651;28;20025;-52
2023/11/03 08:31:30;;;;;;;4.78;1.83;;;17.20;69.80;;;;;;5016484;28;20081;-55
2023/11/03 08:33:56;;;;;;;3.60;1.38;;;17.10;69.70;;;;;;5015477;28;20814;-52
2023/11/03 08:36:22;;;;;;;4.32;1.70;;;17.10;69.70;;;;;;5017258;28;20055;-53
2023/11/03 08:38:51;;;;;;;4.97;1.73;;;17.10;69.70;;;;;;5012634;28;20057;-53
2023/11/03 08:41:19;;;;;;;4.30;1.40;;;17.10;69.70;;;;;;5014233;28;20113;-52
2023/11/03 08:43:45;;;;;;;4.20;1.60;;;17.10;69.70;;;;;;5015640;28;20065;-54
2023/11/03 08:46:11;;;;;;;4.63;1.65;;;17.10;69.60;;;;;;5014685;28;20054;-52
2023/11/03 08:48:37;;;;;;;4.28;2.08;;;17.10;69.60;;;;;;5013593;28;20052;-52
2023/11/03 08:51:03;;;;;;;4.45;1.67;;;17.10;69.70;;;;;;5012609;28;20440;-53
2023/11/03 08:53:28;;;;;;;4.15;1.38;;;17.10;69.60;;;;;;5011878;28;20033;-52
2023/11/03 08:55:54;;;;;;;4.47;1.50;;;17.10;69.60;;;;;;5012782;28;20034;-54
2023/11/03 08:58:20;;;;;;;4.22;1.60;;;17.10;69.60;;;;;;5015274;28;20064;-52
2023/11/03 09:00:48;;;;;;;4.32;1.55;;;17.20;69.70;;;;;;5017455;28;20041;-51
2023/11/03 09:03:14;;;;;;;4.03;1.67;;;17.10;69.60;;;;;;5015092;28;20041;-53
2023/11/03 09:05:39;;;;;;;3.28;1.80;;;17.10;69.60;;;;;;5013413;28;20033;-54
2023/11/03 09:08:05;;;;;;;4.53;1.58;;;17.10;69.60;;;;;;5014240;28;20072;-54
2023/11/03 09:10:31;;;;;;;3.20;1.35;;;17.10;69.60;;;;;;5013756;28;20041;-51
2023/11/03 09:12:57;;;;;;;3.20;1.35;;;17.10;69.60;;;;;;5013713;28;20033;-52
2023/11/03 09:15:23;;;;;;;4.07;1.42;;;17.10;69.60;;;;;;5015352;28;20517;-53
2023/11/03 09:17:48;;;;;;;2.70;1.10;;;17.20;69.70;;;;;;5014090;28;20096;-54
2023/11/03 09:20:18;;;;;;;3.83;1.58;;;17.10;69.60;;;;;;5012211;28;20513;-53
2023/11/03 09:22:43;;;;;;;4.47;1.38;;;17.10;69.60;;;;;;5014587;28;20041;-56
2023/11/03 09:25:09;;;;;;;5.78;1.63;;;17.10;69.60;;;;;;5018654;28;20041;-53
2023/11/03 09:27:35;;;;;;;3.40;1.30;;;17.10;69.60;;;;;;5016235;28;20029;-53
2023/11/03 09:30:02;;;;;;;3.17;1.20;;;17.10;69.60;;;;;;5020117;28;20032;-52
2023/11/03 09:32:27;;;;;;;2.58;1.20;;;17.10;69.60;;;;;;5012019;28;20522;-54
2023/11/03 09:34:53;;;;;;;4.38;1.30;;;17.10;69.60;;;;;;5011144;28;20793;-56
2023/11/03 09:37:19;;;;;;;3.25;1.40;;;17.10;69.60;;;;;;5014559;28;20041;-53
2023/11/03 09:39:45;;;;;;;1.45;1.05;;;17.10;70.20;;;;;;5014000;28;20120;-53
2023/11/03 09:42:11;;;;;;;4.43;1.55;;;17.10;69.60;;;;;;5015586;28;20033;-53
2023/11/03 09:44:38;;;;;;;2.95;1.45;;;17.10;69.60;;;;;;5013531;28;20036;-54
2023/11/03 09:47:05;;;;;;;2.25;1.10;;;17.10;69.60;;;;;;5012782;28;20034;-50
2023/11/03 09:49:31;;;;;;;3.03;1.30;;;17.10;69.60;;;;;;5012910;28;20046;-54
2023/11/03 09:52:06;;;;;;;2.55;1.10;;;17.10;69.60;;;;;;5010054;28;20478;-53
2023/11/03 09:54:34;;;;;;;1.50;1.30;;;17.10;69.60;;;;;;5018237;28;20045;-53
2023/11/03 09:57:02;;;;;;;3.97;1.20;;;17.10;69.60;;;;;;5017800;28;20046;-56
2023/11/03 09:59:34;;;;;;;4.22;1.45;;;17.10;69.60;;;;;;5015263;28;20674;-51
2023/11/03 10:02:04;;;;;;;3.13;1.35;;;17.10;69.60;;;;;;5011113;28;20380;-53
2023/11/03 10:04:30;;;;;;;2.03;0.95;;;17.10;69.70;;;;;;5014199;28;20056;-50
2023/11/03 10:06:58;;;;;;;3.25;0.93;;;17.10;69.60;;;;;;5011704;28;20064;-54
2023/11/03 10:09:24;;;;;;;1.95;1.05;;;17.10;69.60;;;;;;5030763;28;20109;-57
2023/11/03 10:11:49;;;;;;;2.25;0.90;;;17.10;69.60;;;;;;5011340;28;20117;-56
2023/11/03 10:14:15;;;;;;;2.85;0.90;;;17.10;69.60;;;;;;5014738;28;20092;-50
2023/11/03 10:16:41;;;;;;;3.42;1.13;;;17.10;69.70;;;;;;5011711;28;20045;-54
2023/11/03 10:19:07;;;;;;;3.55;0.88;;;17.10;69.70;;;;;;5014487;28;20025;-53
2023/11/03 10:21:32;;;;;;;2.40;1.20;;;17.10;69.70;;;;;;5008055;28;20026;-55
2023/11/03 10:23:59;;;;;;;1.85;0.90;;;17.10;69.70;;;;;;5017603;28;20023;-51
2023/11/03 10:26:26;;;;;;;1.55;1.00;;;17.10;69.70;;;;;;5017727;28;20025;-51
2023/11/03 10:28:51;;;;;;;1.58;0.90;;;17.10;69.70;;;;;;5017164;28;20231;-51
2023/11/03 10:31:22;;;;;;;2.45;1.05;;;17.10;69.70;;;;;;5011726;28;20057;-50
2023/11/03 10:33:49;;;;;;;2.30;1.02;;;17.10;69.70;;;;;;5015259;28;20034;-54
2023/11/03 10:36:15;;;;;;;3.30;1.45;;;17.10;70.30;;;;;;5015645;28;20068;-54
2023/11/03 10:38:41;;;;;;;2.08;0.95;;;17.10;69.70;;;;;;5012927;28;20038;-52
2023/11/03 10:41:10;;;;;;;2.50;1.23;;;17.10;69.80;;;;;;5013194;28;20048;-54
2023/11/03 10:43:40;;;;;;;3.42;1.15;;;17.10;69.70;;;;;;5012518;28;20039;-57
2023/11/03 10:46:18;;;;;;;2.13;0.90;;;17.10;69.60;;;;;;5014897;28;20112;-53
2023/11/03 10:48:46;;;;;;;1.23;0.70;;;17.10;69.60;;;;;;5011347;28;20120;-50
2023/11/03 10:51:49;;;;;;;3.05;0.93;;;17.10;69.70;;;;;;5016700;28;20724;-54
2023/11/03 10:54:49;;;;;;;2.00;1.00;;;17.10;69.60;;;;;;5018025;28;20037;-57
2023/11/03 10:57:16;;;;;;;3.50;1.17;;;17.10;69.60;;;;;;4992522;28;20034;-52
2023/11/03 10:59:47;;;;;;;1.98;0.70;;;17.10;69.60;;;;;;5017821;28;20039;-55
2023/11/03 11:02:35;;;;;;;2.67;1.27;;;17.10;69.60;;;;;;5015099;28;20030;-51
2023/11/03 11:05:20;;;;;;;2.40;0.95;;;17.10;69.60;;;;;;5017587;28;20402;-54
2023/11/03 11:07:51;;;;;;;2.15;0.90;;;17.10;69.60;;;;;;5015653;28;20116;-53
2023/11/03 11:10:19;;;;;;;2.50;1.13;;;17.10;69.60;;;;;;5014790;28;20174;-57
2023/11/03 11:12:47;;;;;;;0.90;0.65;;;17.10;69.60;;;;;;5014664;28;20328;-51
2023/11/03 11:15:17;;;;;;;3.10;0.85;;;17.10;69.60;;;;;;5014165;28;20042;-56
2023/11/03 11:17:43;;;;;;;2.08;0.90;;;17.10;69.60;;;;;;5012822;28;20872;-56
2023/11/03 11:20:14;;;;;;;1.40;0.75;;;17.10;69.60;;;;;;5018503;28;20459;-56
2023/11/03 11:22:40;;;;;;;0.98;0.70;;;17.10;69.60;;;;;;5017887;28;20040;-53
2023/11/03 11:25:10;;;;;;;1.58;0.65;;;17.10;69.60;;;;;;5019379;28;20033;-53
2023/11/03 11:27:38;;;;;;;1.00;0.50;;;17.10;69.60;;;;;;5017982;28;20026;-54
2023/11/03 11:30:14;;;;;;;2.88;0.70;;;17.10;69.60;;;;;;5012500;28;20064;-52
2023/11/03 11:32:51;;;;;;;1.02;0.70;;;17.10;69.60;;;;;;5016961;28;20048;-51
2023/11/03 11:35:19;;;;;;;3.03;1.15;;;17.10;69.60;;;;;;5016299;28;20047;-51
2023/11/03 11:37:45;;;;;;;1.83;0.95;;;17.10;69.60;;;;;;5030704;28;20416;-51
2023/11/03 11:40:10;;;;;;;1.73;0.88;;;17.10;69.60;;;;;;5014804;28;20034;-51
2023/11/03 11:42:44;;;;;;;1.88;0.85;;;17.10;69.60;;;;;;5016496;28;20025;-53
2023/11/03 11:45:14;;;;;;;0.80;0.70;;;17.10;69.60;;;;;;5013262;28;20052;-55
2023/11/03 11:47:44;;;;;;;1.55;0.73;;;17.10;69.60;;;;;;5012661;28;20101;-57
2023/11/03 11:50:11;;;;;;;2.13;0.70;;;17.10;69.60;;;;;;5014106;28;20033;-54
2023/11/03 11:52:39;;;;;;;1.92;0.90;;;17.10;69.60;;;;;;5017204;28;20037;-51
2023/11/03 11:55:05;;;;;;;2.38;0.80;;;17.10;69.60;;;;;;5017854;28;20132;-55
2023/11/03 11:57:32;;;;;;;1.75;0.95;;;17.10;69.60;;;;;;5017639;28;20034;-52
2023/11/03 11:59:58;;;;;;;2.00;0.82;;;17.10;69.60;;;;;;5017543;28;20049;-55
2023/11/03 12:02:24;;;;;;;0.90;0.60;;;17.10;69.60;;;;;;5015933;28;20065;-57
2023/11/03 12:04:52;;;;;;;1.70;0.75;;;17.10;69.60;;;;;;5013763;28;20033;-56
2023/11/03 12:07:22;;;;;;;0.77;0.50;;;17.10;69.60;;;;;;5013921;28;20062;-51
2023/11/03 12:09:50;;;;;;;1.50;0.60;;;17.10;69.60;;;;;;5012696;28;20042;-54
2023/11/03 12:12:15;;;;;;;3.42;0.85;;;17.10;69.60;;;;;;5012920;28;20506;-52
2023/11/03 12:14:42;;;;;;;1.50;0.70;;;17.10;69.60;;;;;;5012638;28;20042;-55
2023/11/03 12:17:07;;;;;;;1.58;0.82;;;17.10;69.60;;;;;;5015720;28;20445;-51
2023/11/03 12:19:33;;;;;;;1.52;0.70;;;17.10;69.60;;;;;;5018148;28;20033;-52
2023/11/03 12:21:58;;;;;;;1.05;0.73;;;17.00;69.60;;;;;;5016583;28;20034;-56
2023/11/03 12:24:24;;;;;;;1.02;0.52;;;17.10;69.60;;;;;;5016063;28;20176;-55
2023/11/03 12:26:50;;;;;;;1.05;0.60;;;17.10;69.60;;;;;;5015224;28;20034;-52
2023/11/03 12:29:30;;;;;;;1.73;0.73;;;17.10;69.70;;;;;;5015351;28;20045;-51
2023/11/03 12:32:01;;;;;;;1.05;0.75;;;17.10;69.60;;;;;;5014072;28;20112;-55
2023/11/03 12:34:27;;;;;;;1.05;0.70;;;17.10;69.60;;;;;;5014891;28;20038;-57
2023/11/03 12:36:55;;;;;;;0.98;0.60;;;17.10;69.70;;;;;;5013979;28;20546;-52
2023/11/03 12:39:22;;;;;;;1.00;0.50;;;17.10;69.60;;;;;;5014131;28;20595;-56
2023/11/03 12:42:03;;;;;;;1.40;0.68;;;17.10;69.60;;;;;;5009889;28;20091;-53
2023/11/03 12:44:31;;;;;;;0.85;0.63;;;17.00;69.60;;;;;;5012985;28;20030;-53
2023/11/03 12:46:57;;;;;;;1.33;0.60;;;17.10;69.70;;;;;;5018019;28;20071;-56